Pagina principale
METAR-TAF:

METAR-TAF

Aeroporti :

Aeroporto di Lamezia Terme

Lamezia Terme, Italia

latitudine: 38-54N, longitudine: 016-15E, altezza: 15 m

Osservazione

Il bollettino è stato emesso 1 ora e 13 minuti fa, alle 01:50 UTC
Vento 13 kt da ovest/sud-ovest
Temperature 13°C
Umidità 82%
Pressione 1025 hPa
Visibilità 10 km o più
Nubi sparse ad un'altezza di 2000 ft

METAR: LICA 240150Z 25013KT 9999 SCT020 13/10 Q1025

Ora: 04:03 (03:03 UTC)

Previsione

Il bollettino è stato emesso 4 ore e 3 minuti fa, alle 23:00 UTC
Previsione valida dal 24 alle 00 UTC al 24 alle 24 UTC
Vento 10 kt da ovest
Visibilità 10 km o più
Poco nuvoloso ad un'altezza di 3000 ft

TAF: LICA 232300Z 2400/2424 27010KT 9999 FEW030

Osservazioni e previsioni meteorologiche di più di 4000 aeroporti (messaggi METAR e TAF).

Le stazioni disponibili sono rappresentate dai dischi gialli e rossi sulla carta.

Puntare il mouse per vedere il nome della stazione.

Clicca sopra per visualizzare le osservazioni e previsioni meteorologiche.

Per cambiare la mappa : fare clic sui pulsanti verdi con una croce nera per ingrandire, il pulsante verde con un trattino per diminuire, o sulla freccia verde per le mappe adiacenti.


METAR-TAF: